Time;durP1;ratioP1;P1;durP2;ratioP2;P2;SDS_P1;SDS_P2;PMS_P1;PMS_P2;Temp;Humidity;BMP_temperature;BMP_pressure;BME280_temperature;BME280_humidity;BME280_pressure;Samples;Min_cycle;Max_cycle;Signal;HPM_P1;HPM_P2
2022/03/09 00:01:20;;;;;;;10.73;9.63;;;;;;;-1.14;71.00;100987.34;10503567;28;20443;-71
2022/03/09 00:06:22;;;;;;;10.93;9.70;;;;;;;-1.38;70.29;100981.41;10503509;28;20041;-71
2022/03/09 00:11:23;;;;;;;14.43;9.60;;;;;;;-1.46;70.92;100982.88;10485176;28;20531;-71
2022/03/09 00:16:26;;;;;;;11.65;9.93;;;;;;;-1.40;71.63;100983.94;10502818;28;20041;-71
2022/03/09 00:21:28;;;;;;;13.85;10.27;;;;;;;-1.44;71.81;100984.69;10485627;28;20097;-71
2022/03/09 00:26:29;;;;;;;11.20;10.10;;;;;;;-1.32;71.57;100977.34;10485341;28;20114;-71
2022/03/09 00:31:31;;;;;;;11.15;9.98;;;;;;;-1.06;71.31;100978.16;10503194;28;20041;-71
2022/03/09 00:36:32;;;;;;;13.35;10.57;;;;;;;-1.25;71.64;100986.13;10503045;28;20051;-71
2022/03/09 00:41:34;;;;;;;11.57;9.88;;;;;;;-1.58;72.74;100989.41;10484659;28;20569;-71
2022/03/09 00:46:36;;;;;;;13.27;11.80;;;;;;;-1.44;73.14;100989.84;10485114;28;20063;-71
2022/03/09 00:51:38;;;;;;;11.38;10.18;;;;;;;-1.61;72.83;100991.88;10502626;28;20055;-71
2022/03/09 00:56:39;;;;;;;12.77;11.52;;;;;;;-1.47;73.41;100994.88;10502896;28;20048;-71
2022/03/09 01:01:41;;;;;;;11.93;10.60;;;;;;;-1.41;73.32;100994.22;10502095;28;20044;-71
2022/03/09 01:06:44;;;;;;;10.90;9.80;;;;;;;-1.63;73.63;100995.25;10501981;28;20064;-72
2022/03/09 01:11:45;;;;;;;11.57;10.27;;;;;;;-1.49;72.85;100985.38;10502375;28;20040;-71
2022/03/09 01:16:47;;;;;;;12.60;9.75;;;;;;;-1.45;73.27;100979.47;10501252;28;20452;-71
2022/03/09 01:21:49;;;;;;;10.20;9.20;;;;;;;-1.80;73.85;100980.09;10500792;28;20041;-71
2022/03/09 01:26:50;;;;;;;17.85;9.68;;;;;;;-1.86;74.94;100973.84;10500703;28;20047;-72
2022/03/09 01:31:52;;;;;;;14.18;9.57;;;;;;;-1.82;74.45;100979.13;10482651;28;20051;-72
2022/03/09 01:36:53;;;;;;;12.00;9.45;;;;;;;-1.78;74.70;100970.69;10500467;28;20109;-72
2022/03/09 01:41:55;;;;;;;11.10;9.13;;;;;;;-1.99;74.97;100976.81;10500936;28;20116;-72
2022/03/09 01:46:56;;;;;;;10.20;9.20;;;;;;;-1.81;75.07;100972.31;10483339;28;20052;-72
2022/03/09 01:52:00;;;;;;;12.15;8.60;;;;;;;-2.09;74.45;100975.63;10500640;28;20044;-71
2022/03/09 01:57:02;;;;;;;9.82;8.82;;;;;;;-1.93;74.55;100967.63;10500379;28;20056;-72
2022/03/09 02:02:04;;;;;;;9.60;8.50;;;;;;;-2.23;75.87;100969.13;10482105;28;20413;-71
2022/03/09 02:07:10;;;;;;;9.55;8.55;;;;;;;-2.19;76.30;100968.44;10499271;28;20044;-72
2022/03/09 02:12:16;;;;;;;10.65;9.10;;;;;;;-1.96;75.95;100972.66;10500091;28;20040;-71
2022/03/09 02:17:21;;;;;;;13.07;9.57;;;;;;;-1.92;74.94;100977.09;10481960;28;20413;-71
2022/03/09 02:22:30;;;;;;;11.95;9.93;;;;;;;-1.79;74.61;100971.53;10500247;28;20044;-71
2022/03/09 02:27:32;;;;;;;11.05;8.90;;;;;;;-1.88;74.53;100967.75;10481150;28;20513;-71
2022/03/09 02:32:43;;;;;;;11.52;9.27;;;;;;;-2.26;75.74;100972.47;10481245;28;20052;-72
2022/03/09 02:37:45;;;;;;;10.52;8.93;;;;;;;-2.49;76.82;100955.34;10498558;28;20053;-71
2022/03/09 02:42:47;;;;;;;11.63;9.20;;;;;;;-2.49;77.01;100969.09;10499185;28;20071;-72
2022/03/09 02:47:49;;;;;;;9.30;8.40;;;;;;;-2.23;77.06;100967.44;10480875;28;20040;-72
2022/03/09 02:52:50;;;;;;;10.00;8.00;;;;;;;-2.52;77.05;100969.00;10498808;28;20509;-72
2022/03/09 02:57:52;;;;;;;10.57;8.45;;;;;;;-2.57;77.81;100974.00;10498304;28;20559;-72
2022/03/09 03:02:53;;;;;;;11.60;8.80;;;;;;;-2.17;76.46;100977.97;10479711;28;20155;-71
2022/03/09 03:07:55;;;;;;;10.45;9.35;;;;;;;-2.19;76.16;100974.44;10497665;28;20418;-71
2022/03/09 03:12:57;;;;;;;12.18;9.35;;;;;;;-2.23;76.07;100969.13;10481694;28;20041;-72
2022/03/09 03:17:59;;;;;;;11.43;8.23;;;;;;;-2.52;76.60;100969.00;10498678;28;20494;-71
2022/03/09 03:23:00;;;;;;;13.57;8.85;;;;;;;-2.64;77.90;100968.56;10497717;28;20071;-71
2022/03/09 03:28:02;;;;;;;10.32;8.52;;;;;;;-2.64;78.35;100959.13;10480209;28;20048;-72
2022/03/09 03:33:03;;;;;;;9.15;8.25;;;;;;;-2.57;77.02;100950.81;10479894;28;20144;-71
2022/03/09 03:38:06;;;;;;;9.95;8.23;;;;;;;-2.74;78.38;100961.31;10504536;28;20045;-71
2022/03/09 03:43:08;;;;;;;8.73;7.93;;;;;;;-2.83;78.52;100965.31;10505062;28;20068;-72
2022/03/09 03:48:09;;;;;;;12.38;7.85;;;;;;;-2.60;78.25;100965.28;10486719;28;20066;-72
2022/03/09 03:53:11;;;;;;;8.95;8.05;;;;;;;-2.43;77.55;100965.88;10503939;28;20063;-73
2022/03/09 03:58:12;;;;;;;9.65;7.50;;;;;;;-2.53;77.21;100959.50;10504230;28;20173;-73
2022/03/09 04:03:14;;;;;;;9.43;8.00;;;;;;;-2.73;78.50;100955.34;10503648;28;20044;-72
2022/03/09 04:08:15;;;;;;;12.27;7.63;;;;;;;-2.39;77.22;100962.56;10504951;28;20052;-72
2022/03/09 04:13:17;;;;;;;10.93;7.78;;;;;;;-2.82;78.13;100958.47;10504832;28;20548;-72
2022/03/09 04:18:19;;;;;;;11.82;8.30;;;;;;;-2.86;79.40;100952.31;10504454;28;20048;-72
2022/03/09 04:23:20;;;;;;;9.25;8.20;;;;;;;-2.79;79.00;100948.25;10486419;28;20136;-72
2022/03/09 04:28:22;;;;;;;11.77;7.88;;;;;;;-3.02;78.94;100957.69;10503305;28;20045;-72
2022/03/09 04:33:23;;;;;;;10.40;7.57;;;;;;;-2.95;79.92;100969.13;10503803;28;20052;-72
2022/03/09 04:38:26;;;;;;;8.55;7.47;;;;;;;-2.98;79.82;100962.16;10469354;28;20045;-72
2022/03/09 04:43:28;;;;;;;15.13;11.27;;;;;;;-2.59;78.70;100961.88;10503259;28;20405;-73
2022/03/09 04:48:30;;;;;;;10.70;8.18;;;;;;;-2.71;78.39;100969.13;10484832;28;20048;-73
2022/03/09 04:53:32;;;;;;;8.43;7.40;;;;;;;-2.55;77.97;100958.59;10502454;28;20044;-72
2022/03/09 04:58:33;;;;;;;11.70;7.45;;;;;;;-2.71;78.10;100961.41;10484498;28;20052;-72
2022/03/09 05:03:37;;;;;;;9.82;7.53;;;;;;;-3.08;78.44;100976.34;10484525;28;20110;-73
2022/03/09 05:08:39;;;;;;;8.02;6.47;;;;;;;-3.34;79.71;100990.78;10503812;28;20044;-73
2022/03/09 05:13:41;;;;;;;8.20;7.13;;;;;;;-3.32;80.10;100995.97;10485128;28;20082;-73
2022/03/09 05:18:42;;;;;;;10.40;8.38;;;;;;;-2.80;79.74;100995.41;10503474;28;20049;-73
2022/03/09 05:23:44;;;;;;;10.38;7.72;;;;;;;-2.68;78.46;101003.59;10502088;28;20076;-73
2022/03/09 05:28:46;;;;;;;8.35;7.55;;;;;;;-2.87;78.70;101006.31;10502924;28;20508;-73
2022/03/09 05:33:47;;;;;;;7.88;7.10;;;;;;;-3.08;80.00;101008.94;10504840;28;20044;-73
2022/03/09 05:38:49;;;;;;;8.80;7.20;;;;;;;-3.21;81.02;101020.41;10485404;28;20072;-72
2022/03/09 05:43:50;;;;;;;9.13;7.65;;;;;;;-2.77;79.91;101020.38;10502679;28;20033;-72
2022/03/09 05:48:53;;;;;;;14.02;8.48;;;;;;;-2.88;79.93;101030.25;10468543;28;20049;-73
2022/03/09 05:53:55;;;;;;;10.13;8.55;;;;;;;-2.97;80.43;101028.19;10502783;28;20044;-72
2022/03/09 05:58:56;;;;;;;11.77;8.38;;;;;;;-2.71;80.09;101018.91;10502205;28;20452;-73
2022/03/09 06:03:58;;;;;;;9.27;7.30;;;;;;;-2.84;80.81;101022.72;10504394;28;20044;-72
2022/03/09 06:08:59;;;;;;;10.00;7.43;;;;;;;-2.96;80.28;101026.53;10485311;28;20051;-73
2022/03/09 06:14:01;;;;;;;9.50;7.32;;;;;;;-2.39;81.92;101017.53;10484794;28;20048;-73
2022/03/09 06:19:03;;;;;;;9.13;7.55;;;;;;;1.08;79.86;101033.75;10501767;28;20135;-73
2022/03/09 06:24:08;;;;;;;12.32;9.05;;;;;;;2.22;63.35;101033.50;10502221;28;20048;-73
2022/03/09 06:29:10;;;;;;;8.20;7.40;;;;;;;2.07;60.94;101047.91;10484620;28;20045;-74
2022/03/09 06:34:13;;;;;;;8.20;7.38;;;;;;;3.51;59.25;101038.97;10484254;28;20045;-74
2022/03/09 06:39:16;;;;;;;8.25;7.45;;;;;;;3.45;56.23;101038.91;10482421;28;20094;-73
2022/03/09 06:44:17;;;;;;;7.90;6.15;;;;;;;2.31;59.51;101037.13;10499390;28;20101;-75
2022/03/09 06:49:19;;;;;;;7.07;6.38;;;;;;;1.48;62.08;101054.50;10481165;28;20041;-72
2022/03/09 06:54:21;;;;;;;9.38;7.38;;;;;;;1.10;64.53;101055.38;10499690;28;20041;-72
2022/03/09 06:59:22;;;;;;;10.50;7.28;;;;;;;2.22;62.29;101051.69;10498642;28;20135;-73
2022/03/09 07:04:24;;;;;;;17.83;8.13;;;;;;;2.96;57.81;101056.38;10498577;28;20048;-73
2022/03/09 07:09:25;;;;;;;11.93;7.28;;;;;;;3.15;57.86;101056.66;10499281;28;20456;-73
2022/03/09 07:14:27;;;;;;;12.55;8.15;;;;;;;2.65;58.50;101054.13;10508871;28;20041;-77
2022/03/09 07:19:29;;;;;;;13.70;9.40;;;;;;;2.77;58.65;101064.72;10490301;28;20055;-72
2022/03/09 07:24:30;;;;;;;12.63;8.38;;;;;;;3.12;57.81;101067.00;10507750;28;20040;-73
2022/03/09 07:29:32;;;;;;;8.40;7.35;;;;;;;2.89;58.96;101061.47;10507134;28;20044;-74
2022/03/09 07:34:35;;;;;;;10.27;7.45;;;;;;;2.58;59.51;101062.69;10507934;28;20041;-73
2022/03/09 07:39:37;;;;;;;8.85;7.07;;;;;;;2.39;60.60;101064.06;10489564;28;20056;-73
2022/03/09 07:44:38;;;;;;;7.30;5.95;;;;;;;2.28;60.54;101069.06;10506529;28;20506;-73
2022/03/09 07:49:40;;;;;;;8.45;6.43;;;;;;;2.65;59.69;101073.16;10505592;28;20044;-73
2022/03/09 07:54:41;;;;;;;8.02;6.32;;;;;;;2.76;59.78;101069.06;10505325;28;20102;-73
2022/03/09 07:59:43;;;;;;;8.65;6.38;;;;;;;2.52;60.31;101074.72;10505360;28;20045;-73
2022/03/09 08:04:45;;;;;;;11.10;7.13;;;;;;;3.01;58.40;101072.03;10505896;28;20106;-73
2022/03/09 08:09:46;;;;;;;7.00;6.07;;;;;;;2.76;59.90;101073.38;10488337;28;20072;-73
2022/03/09 08:14:48;;;;;;;8.45;6.50;;;;;;;2.89;59.73;101069.25;10487903;28;20045;-73
2022/03/09 08:19:50;;;;;;;7.35;5.43;;;;;;;3.40;58.73;101063.94;10506379;28;20036;-73
2022/03/09 08:24:51;;;;;;;6.63;5.40;;;;;;;3.44;58.63;101070.06;10505335;28;20041;-73
2022/03/09 08:29:53;;;;;;;8.32;5.68;;;;;;;3.65;57.10;101064.28;10485854;28;20102;-73
2022/03/09 08:34:55;;;;;;;8.15;5.72;;;;;;;3.88;56.38;101065.44;10469615;28;20075;-73
2022/03/09 08:39:57;;;;;;;6.65;5.95;;;;;;;4.24;55.24;101057.16;10503693;28;20478;-72
2022/03/09 08:44:59;;;;;;;11.05;6.40;;;;;;;3.98;55.52;101071.59;10504113;28;20043;-73
2022/03/09 08:50:01;;;;;;;6.05;5.22;;;;;;;4.50;54.67;101074.78;10503838;28;20501;-72
2022/03/09 08:55:22;;;;;;;12.27;5.18;;;;;;;5.13;52.58;101072.69;10504051;28;20040;-72
2022/03/09 09:00:24;;;;;;;9.82;5.70;;;;;;;5.49;52.21;101074.66;10486621;28;20044;-72
2022/03/09 09:05:26;;;;;;;8.98;5.70;;;;;;;5.79;50.69;101068.72;10503666;28;20071;-72
2022/03/09 09:10:28;;;;;;;12.00;5.88;;;;;;;5.96;50.30;101066.22;10484118;28;20044;-71
2022/03/09 09:15:29;;;;;;;5.78;4.53;;;;;;;5.86;50.43;101062.66;10497452;28;20036;-73
2022/03/09 09:20:31;;;;;;;7.53;5.47;;;;;;;6.24;49.50;101068.06;10499439;28;20041;-72
2022/03/09 09:25:33;;;;;;;11.20;5.65;;;;;;;6.96;47.52;101062.91;10499360;28;20045;-73
2022/03/09 09:30:35;;;;;;;12.43;6.18;;;;;;;6.67;47.75;101064.63;10481134;28;20052;-73
2022/03/09 09:35:37;;;;;;;9.75;4.80;;;;;;;7.02;47.59;101056.78;10499237;28;20463;-73
2022/03/09 09:40:41;;;;;;;11.63;5.22;;;;;;;7.23;46.68;101048.03;10494042;28;20047;-73
2022/03/09 09:45:43;;;;;;;9.55;4.90;;;;;;;7.43;46.58;101048.84;10498589;28;20482;-71
2022/03/09 09:50:45;;;;;;;8.90;4.88;;;;;;;7.29;47.05;101041.03;10470925;28;20052;-72
2022/03/09 09:55:47;;;;;;;7.85;5.10;;;;;;;8.00;44.99;101039.03;10496643;28;20044;-72
2022/03/09 10:00:48;;;;;;;8.13;5.18;;;;;;;8.20;44.41;101040.69;10497682;28;20052;-72
2022/03/09 10:05:50;;;;;;;7.05;4.85;;;;;;;8.77;42.49;101028.09;10497022;28;20119;-71
2022/03/09 10:10:59;;;;;;;5.38;4.20;;;;;;;8.62;43.69;101036.06;10489650;22;20041;-71
2022/03/09 10:16:18;;;;;;;6.47;4.40;;;;;;;9.25;42.07;101023.22;10383509;28;20042;-72
2022/03/09 10:21:28;;;;;;;5.57;4.88;;;;;;;9.83;41.67;101022.56;10375510;28;20058;-72
2022/03/09 10:26:38;;;;;;;5.68;5.18;;;;;;;9.91;42.01;101025.06;10360492;28;20132;-72
2022/03/09 10:31:45;;;;;;;6.07;5.43;;;;;;;10.05;40.26;101031.91;10378825;28;20054;-73
2022/03/09 10:37:04;;;;;;;5.30;4.80;;;;;;;10.20;40.28;101016.81;10360715;28;20464;-72
2022/03/09 10:42:23;;;;;;;5.25;4.70;;;;;;;10.75;40.68;101021.22;10358456;28;20053;-72
2022/03/09 10:47:35;;;;;;;7.63;4.07;;;;;;;11.06;40.43;101009.25;10375530;28;20054;-73
2022/03/09 10:52:46;;;;;;;4.60;3.72;;;;;;;11.12;39.50;101008.31;10377148;28;20080;-72
2022/03/09 10:57:48;;;;;;;4.60;3.88;;;;;;;11.33;40.04;101004.38;10377885;28;20586;-71
2022/03/09 11:02:51;;;;;;;4.43;3.00;;;;;;;10.80;39.80;101003.59;10390442;28;20057;-71
2022/03/09 11:07:53;;;;;;;3.60;3.00;;;;;;;10.44;40.47;101003.31;10392539;28;20050;-72
2022/03/09 11:12:55;;;;;;;3.85;2.95;;;;;;;10.82;40.89;101009.72;10374844;28;20073;-72
2022/03/09 11:17:57;;;;;;;3.35;2.90;;;;;;;11.05;39.32;100993.53;10375578;28;20054;-72
2022/03/09 11:23:00;;;;;;;4.32;2.95;;;;;;;11.79;37.36;100999.06;10375006;28;20049;-72
2022/03/09 11:28:03;;;;;;;4.43;2.53;;;;;;;11.74;38.50;100989.53;10390659;28;20064;-72
2022/03/09 11:33:40;;;;;;;3.17;2.42;;;;;;;11.79;39.29;100985.03;10378226;28;20041;-72
2022/03/09 11:38:42;;;;;;;4.15;2.70;;;;;;;12.26;38.63;100991.00;10375717;28;20487;-73
2022/03/09 11:43:43;;;;;;;4.43;2.90;;;;;;;11.71;37.89;100981.69;10357201;28;20134;-72
2022/03/09 11:48:54;;;;;;;4.13;3.67;;;;;;;12.17;38.20;100988.59;10375260;28;20045;-72
2022/03/09 11:53:58;;;;;;;7.43;4.07;;;;;;;12.81;38.66;100977.34;10376058;28;20042;-73
2022/03/09 11:59:28;;;;;;;4.10;3.03;;;;;;;12.79;38.02;100975.63;10382079;28;20057;-72
2022/03/09 12:04:39;;;;;;;4.40;4.00;;;;;;;12.65;39.63;100975.13;10383131;28;20042;-73
2022/03/09 12:09:57;;;;;;;5.50;3.80;;;;;;;12.10;36.93;100962.38;10382192;28;20124;-72
2022/03/09 12:15:03;;;;;;;4.60;3.30;;;;;;;11.68;37.97;100961.53;10383008;28;20077;-71
2022/03/09 12:20:23;;;;;;;4.55;4.13;;;;;;;12.37;38.29;100962.63;10381997;28;20045;-72
2022/03/09 12:25:43;;;;;;;3.95;3.65;;;;;;;12.34;37.94;100949.53;10381026;28;20462;-72
2022/03/09 12:30:47;;;;;;;5.15;4.38;;;;;;;11.67;36.90;100943.13;10364461;28;20462;-72
2022/03/09 12:35:52;;;;;;;4.68;4.20;;;;;;;11.11;40.25;100951.28;10379393;28;20038;-72
2022/03/09 12:41:39;;;;;;;5.13;4.60;;;;;;;10.55;40.28;100940.06;10380178;28;20046;-73
2022/03/09 12:46:45;;;;;;;;;;;;;;;10.45;40.58;100938.50;10378436;28;20121;-72
2022/03/09 12:51:55;;;;;;;4.72;4.13;;;;;;;10.27;40.67;100937.91;10379492;28;19921;-71
2022/03/09 12:57:28;;;;;;;4.72;4.22;;;;;;;9.86;40.55;100938.47;10378269;28;20038;-73
2022/03/09 13:02:42;;;;;;;4.07;2.33;;;;;;;10.04;39.26;100930.31;10338229;28;20046;-73
2022/03/09 13:08:03;;;;;;;2.92;2.47;;;;;;;9.85;39.64;100942.00;10341931;28;20034;-72
2022/03/09 13:13:05;;;;;;;2.97;2.50;;;;;;;9.72;37.66;100929.94;10360885;28;20050;-73
2022/03/09 13:18:26;;;;;;;3.05;2.55;;;;;;;9.54;38.70;100929.28;10360809;28;20100;-73
2022/03/09 13:23:37;;;;;;;6.88;2.65;;;;;;;9.54;39.70;100931.06;10379325;28;20061;-73
2022/03/09 13:28:39;;;;;;;4.55;4.07;;;;;;;9.48;40.36;100925.91;10379275;28;20063;-73
2022/03/09 13:33:42;;;;;;;5.57;4.15;;;;;;;9.23;41.20;100927.94;10361136;28;20061;-73
2022/03/09 13:38:58;;;;;;;4.05;3.25;;;;;;;9.56;39.83;100930.16;10377415;28;20084;-72
2022/03/09 13:44:02;;;;;;;3.90;3.30;;;;;;;9.31;41.01;100916.47;10360130;28;20050;-73
2022/03/09 13:49:13;;;;;;;4.05;3.65;;;;;;;9.34;42.50;100929.56;10376954;28;20057;-72
2022/03/09 13:54:20;;;;;;;3.92;3.50;;;;;;;9.35;41.79;100915.56;10378473;28;20045;-73
2022/03/09 13:59:41;;;;;;;4.95;3.80;;;;;;;9.14;41.83;100909.69;10377811;28;20050;-73
2022/03/09 14:04:44;;;;;;;3.78;3.30;;;;;;;9.26;42.00;100913.03;10378262;28;20125;-73
2022/03/09 14:10:22;;;;;;;3.53;3.08;;;;;;;9.20;41.07;100899.13;10376519;28;20038;-73
2022/03/09 14:15:26;;;;;;;3.85;3.38;;;;;;;9.64;39.94;100905.53;10212504;29;20458;-73
2022/03/09 14:20:28;;;;;;;3.15;2.85;;;;;;;9.53;41.69;100914.44;10212709;29;20544;-73
2022/03/09 14:25:30;;;;;;;3.00;2.55;;;;;;;9.32;41.47;100909.47;10211901;29;20063;-73
2022/03/09 14:30:32;;;;;;;3.28;2.38;;;;;;;9.21;41.57;100912.25;10196097;29;20068;-72
2022/03/09 14:35:33;;;;;;;3.63;2.38;;;;;;;9.26;40.98;100907.78;10212523;29;20056;-74
2022/03/09 14:40:35;;;;;;;3.28;2.50;;;;;;;9.06;40.88;100908.03;10212241;29;20060;-72
2022/03/09 14:45:36;;;;;;;12.43;11.45;;;;;;;9.24;40.74;100898.19;10196477;29;20433;-73
2022/03/09 14:50:41;;;;;;;22.13;20.00;;;;;;;9.32;41.03;100898.97;10327928;28;20061;-72
2022/03/09 14:55:42;;;;;;;3.40;3.00;;;;;;;9.40;39.83;100899.75;10375763;28;20046;-72
2022/03/09 15:00:44;;;;;;;18.42;16.65;;;;;;;9.42;39.56;100894.47;10375348;28;20046;-72
2022/03/09 15:05:46;;;;;;;13.52;10.63;;;;;;;9.27;41.20;100900.78;10375678;28;20100;-72
2022/03/09 15:10:47;;;;;;;17.85;15.93;;;;;;;9.28;40.46;100898.13;10375750;28;20050;-73
2022/03/09 15:15:50;;;;;;;5.45;4.95;;;;;;;9.10;40.00;100901.84;10375585;28;20465;-73
2022/03/09 15:20:52;;;;;;;3.42;2.63;;;;;;;9.04;40.14;100906.31;10376874;28;20057;-72
2022/03/09 15:25:53;;;;;;;3.25;2.58;;;;;;;8.95;39.86;100901.19;10358455;28;20431;-72
2022/03/09 15:31:00;;;;;;;3.88;2.35;;;;;;;8.98;39.85;100909.00;10376800;28;20045;-72
2022/03/09 15:36:02;;;;;;;2.15;1.95;;;;;;;8.79;39.73;100911.81;10385109;28;20460;-73
2022/03/09 15:41:04;;;;;;;2.15;1.77;;;;;;;8.77;39.55;100905.75;10365697;28;20510;-73
2022/03/09 15:46:06;;;;;;;3.60;2.40;;;;;;;8.77;39.70;100910.13;10366693;28;20065;-72
2022/03/09 15:51:09;;;;;;;3.85;2.70;;;;;;;8.80;40.21;100915.31;10383092;28;20530;-72
2022/03/09 15:56:10;;;;;;;2.83;2.10;;;;;;;8.78;40.65;100919.72;10383414;28;20046;-73
2022/03/09 16:01:13;;;;;;;4.05;2.70;;;;;;;8.70;40.68;100929.41;10382568;28;20042;-72
2022/03/09 16:06:16;;;;;;;3.92;3.10;;;;;;;8.38;41.58;100932.31;10382484;28;20038;-73
2022/03/09 16:11:22;;;;;;;3.60;3.20;;;;;;;8.38;41.79;100927.94;10380710;28;20054;-71
2022/03/09 16:16:25;;;;;;;4.53;3.30;;;;;;;8.43;41.80;100925.28;10381200;28;20045;-73
2022/03/09 16:21:28;;;;;;;4.70;3.45;;;;;;;8.36;42.45;100924.41;10363327;28;20060;-73
2022/03/09 16:26:30;;;;;;;4.05;3.75;;;;;;;8.22;42.41;100921.91;10380459;28;20415;-72
2022/03/09 16:31:33;;;;;;;6.03;4.95;;;;;;;7.90;43.08;100919.53;10366587;28;20177;-72
2022/03/09 16:36:35;;;;;;;7.95;4.35;;;;;;;7.70;43.31;100922.31;10382734;28;20420;-72
2022/03/09 16:41:36;;;;;;;6.55;4.50;;;;;;;7.48;44.11;100921.53;10381081;28;20045;-73
2022/03/09 16:46:38;;;;;;;6.03;5.32;;;;;;;7.30;44.43;100925.13;10380978;28;20038;-72
2022/03/09 16:51:41;;;;;;;7.90;7.13;;;;;;;7.19;45.31;100934.72;10380770;28;20085;-74
2022/03/09 16:56:43;;;;;;;7.88;6.72;;;;;;;7.16;46.31;100945.19;10381311;28;20042;-72
2022/03/09 17:01:45;;;;;;;8.90;6.63;;;;;;;7.25;47.19;100944.28;10363760;28;20129;-73
2022/03/09 17:06:47;;;;;;;6.90;6.20;;;;;;;7.00;47.44;100947.00;10378877;28;20129;-73
2022/03/09 17:11:49;;;;;;;8.50;6.18;;;;;;;6.80;48.13;100949.63;10379095;28;20578;-72
2022/03/09 17:16:51;;;;;;;8.25;5.03;;;;;;;6.71;48.80;100954.00;10393490;28;20460;-72
2022/03/09 17:21:53;;;;;;;5.90;4.95;;;;;;;6.71;48.97;100949.66;10360903;28;20041;-72
2022/03/09 17:26:55;;;;;;;7.07;5.90;;;;;;;6.70;48.41;100965.34;10379072;28;20041;-73
2022/03/09 17:31:56;;;;;;;7.82;6.85;;;;;;;6.77;48.44;100967.97;10379058;28;20176;-73
2022/03/09 17:36:58;;;;;;;7.90;5.50;;;;;;;6.57;48.93;100978.41;10378040;28;20054;-72
2022/03/09 17:41:59;;;;;;;8.77;5.97;;;;;;;6.33;49.88;100981.03;10376082;28;20100;-72
2022/03/09 17:47:01;;;;;;;7.07;6.38;;;;;;;6.11;50.55;100992.28;10377873;28;20056;-72
2022/03/09 17:52:03;;;;;;;10.30;7.60;;;;;;;6.02;51.20;100996.66;10392179;28;20050;-73
2022/03/09 17:57:05;;;;;;;7.55;5.70;;;;;;;6.33;50.52;101004.53;10377196;28;20046;-74
2022/03/09 18:02:09;;;;;;;6.75;6.05;;;;;;;6.16;50.75;101008.84;10377753;28;20053;-73
2022/03/09 18:07:12;;;;;;;7.20;5.68;;;;;;;6.02;51.67;101009.69;10375276;28;20044;-72
2022/03/09 18:12:13;;;;;;;10.85;7.18;;;;;;;5.49;53.10;101009.44;10337353;28;20042;-73
2022/03/09 18:17:15;;;;;;;10.55;7.13;;;;;;;5.22;54.81;101005.88;10338162;28;20042;-73
2022/03/09 18:22:17;;;;;;;7.95;6.65;;;;;;;5.02;55.71;101015.28;10336420;28;20104;-72
2022/03/09 18:27:20;;;;;;;8.23;6.32;;;;;;;4.62;56.23;101014.13;10336320;28;20042;-74
2022/03/09 18:32:21;;;;;;;7.47;6.78;;;;;;;4.68;56.97;101017.66;10318322;28;20100;-75
2022/03/09 18:37:24;;;;;;;9.65;8.70;;;;;;;4.34;57.79;101021.72;10335842;28;20484;-73
2022/03/09 18:42:26;;;;;;;8.60;6.80;;;;;;;4.24;58.64;101025.94;10335492;28;20101;-72
2022/03/09 18:47:29;;;;;;;11.10;7.28;;;;;;;4.44;58.01;101027.88;10334756;28;20047;-73
2022/03/09 18:52:31;;;;;;;10.40;8.45;;;;;;;4.33;57.59;101034.69;10335091;28;20056;-73
2022/03/09 18:57:33;;;;;;;9.48;8.68;;;;;;;4.05;58.28;101035.28;10325584;28;20045;-73
2022/03/09 19:02:35;;;;;;;11.13;8.52;;;;;;;4.07;58.70;101043.09;10374899;28;20104;-74
2022/03/09 19:07:37;;;;;;;14.73;9.13;;;;;;;3.82;58.87;101049.75;10340827;28;20068;-72
2022/03/09 19:12:40;;;;;;;10.93;9.82;;;;;;;3.70;59.93;101050.47;10384541;28;20132;-73
2022/03/09 19:17:41;;;;;;;12.15;10.57;;;;;;;3.61;60.20;101049.50;10383054;28;20087;-72
2022/03/09 19:22:43;;;;;;;11.63;10.43;;;;;;;3.24;60.74;101047.28;10382954;28;20054;-72
2022/03/09 19:27:46;;;;;;;12.38;11.10;;;;;;;3.08;61.84;101055.69;10365840;28;20466;-72
2022/03/09 19:32:48;;;;;;;13.95;11.80;;;;;;;2.84;62.42;101045.81;10365461;28;20115;-72
2022/03/09 19:37:49;;;;;;;13.63;12.27;;;;;;;3.04;62.34;101061.69;10382440;28;20050;-71
2022/03/09 19:42:51;;;;;;;15.00;13.48;;;;;;;3.21;62.40;101060.22;10387451;28;20409;-71
2022/03/09 19:47:52;;;;;;;15.38;13.68;;;;;;;3.19;62.02;101074.94;10424366;28;20514;-72
2022/03/09 19:52:54;;;;;;;15.65;14.05;;;;;;;3.24;62.06;101070.66;10424710;28;20041;-74
2022/03/09 19:57:57;;;;;;;15.65;14.15;;;;;;;3.11;62.30;101073.94;10405263;28;20049;-74
2022/03/09 20:02:59;;;;;;;17.42;14.15;;;;;;;3.02;62.64;101081.59;10422657;28;20056;-71
2022/03/09 20:08:01;;;;;;;18.17;14.52;;;;;;;2.90;63.35;101082.25;10421820;28;20033;-72
2022/03/09 20:13:03;;;;;;;17.45;15.63;;;;;;;2.63;64.53;101084.41;10422437;28;20053;-74
2022/03/09 20:18:04;;;;;;;18.20;13.98;;;;;;;2.79;64.03;101094.19;10422630;28;20052;-73
2022/03/09 20:23:06;;;;;;;15.65;13.98;;;;;;;2.24;64.54;101104.44;10404941;28;20045;-73
2022/03/09 20:28:08;;;;;;;14.60;13.10;;;;;;;2.05;66.35;101099.75;10422158;28;20498;-72
2022/03/09 20:33:09;;;;;;;17.27;13.52;;;;;;;2.40;66.02;101105.63;10422647;28;20084;-73
2022/03/09 20:38:11;;;;;;;16.27;13.05;;;;;;;2.13;66.18;101111.16;10421610;28;20079;-73
2022/03/09 20:43:13;;;;;;;14.00;12.70;;;;;;;2.10;66.06;101111.09;10422004;28;20041;-73
2022/03/09 20:48:14;;;;;;;13.35;11.95;;;;;;;1.66;66.90;101115.34;10421481;28;20045;-72
2022/03/09 20:53:16;;;;;;;14.63;13.13;;;;;;;1.65;67.82;101114.47;10421279;28;20073;-72
2022/03/09 20:58:18;;;;;;;14.60;13.13;;;;;;;2.12;67.01;101124.09;10421488;28;20076;-71
2022/03/09 21:03:20;;;;;;;13.50;12.10;;;;;;;1.97;66.77;101122.94;10403666;28;20049;-72
2022/03/09 21:08:26;;;;;;;14.50;12.70;;;;;;;1.56;67.92;101131.56;10420796;28;20049;-72
2022/03/09 21:13:51;;;;;;;16.92;12.52;;;;;;;1.21;68.98;101139.38;10420459;28;20128;-73
2022/03/09 21:18:54;;;;;;;13.93;12.48;;;;;;;1.15;69.69;101145.31;10420906;28;20046;-71
2022/03/09 21:23:56;;;;;;;13.82;12.27;;;;;;;1.40;69.76;101144.16;10421489;28;20041;-73
2022/03/09 21:28:58;;;;;;;14.20;12.70;;;;;;;1.18;69.93;101149.66;10419975;28;20049;-72
2022/03/09 21:34:03;;;;;;;14.07;12.57;;;;;;;1.10;70.11;101140.81;10419810;28;20121;-73
2022/03/09 21:39:05;;;;;;;16.63;13.23;;;;;;;1.07;69.79;101143.38;10421398;28;20137;-73
2022/03/09 21:44:06;;;;;;;15.48;12.20;;;;;;;1.26;69.10;101149.00;10419578;28;20507;-72
2022/03/09 21:49:08;;;;;;;14.63;13.10;;;;;;;1.04;69.60;101151.91;10420688;28;20045;-71
2022/03/09 21:54:10;;;;;;;13.88;12.48;;;;;;;0.70;70.28;101150.19;10402541;28;20068;-72
2022/03/09 21:59:11;;;;;;;15.40;13.30;;;;;;;0.87;70.55;101153.19;10420998;28;20068;-72
2022/03/09 22:04:13;;;;;;;15.40;13.90;;;;;;;0.87;71.22;101155.78;10402842;28;20049;-73
2022/03/09 22:09:14;;;;;;;16.45;13.23;;;;;;;0.88;70.38;101166.16;10401368;28;20438;-72
2022/03/09 22:14:16;;;;;;;17.88;12.52;;;;;;;0.79;70.28;101171.13;10418880;28;20042;-73
2022/03/09 22:19:18;;;;;;;14.07;12.48;;;;;;;0.59;70.30;101172.31;10417618;28;20507;-72
2022/03/09 22:24:19;;;;;;;13.07;11.90;;;;;;;0.60;70.76;101172.34;10417789;28;20099;-73
2022/03/09 22:29:21;;;;;;;13.27;11.88;;;;;;;0.44;70.34;101170.16;10418469;28;20057;-72
2022/03/09 22:34:23;;;;;;;12.23;11.13;;;;;;;0.14;71.82;101167.63;10417291;28;20046;-72
2022/03/09 22:39:25;;;;;;;12.38;11.18;;;;;;;0.32;71.73;101162.97;10416211;28;20050;-71
2022/03/09 22:44:26;;;;;;;13.02;11.73;;;;;;;0.10;72.95;101160.63;10399023;28;20045;-72
2022/03/09 22:49:28;;;;;;;11.95;10.85;;;;;;;-0.07;73.20;101166.16;10415589;28;20107;-71
2022/03/09 22:54:31;;;;;;;11.40;10.50;;;;;;;-0.11;73.40;101171.19;10417324;28;20099;-71
2022/03/09 22:59:33;;;;;;;12.95;11.75;;;;;;;-0.04;73.60;101171.44;10417519;28;20069;-72
2022/03/09 23:05:27;;;;;;;11.85;10.65;;;;;;;-0.14;73.63;101186.59;10417424;28;20037;-72
2022/03/09 23:09:56;;;;;;;12.25;11.10;;;;;;;-0.11;72.66;101179.81;10416606;28;20557;-72
2022/03/09 23:14:57;;;;;;;12.95;11.77;;;;;;;-0.14;72.92;101181.44;10404053;28;20064;-72